CDT,Max TemperatureF,Mean TemperatureF,Min TemperatureF,Max Dew PointF,MeanDew PointF,Min DewpointF,Max Humidity, Mean Humidity, Min Humidity, Max Sea Level PressureIn, Mean Sea Level PressureIn, Min Sea Level PressureIn, Max VisibilityMiles, Mean VisibilityMiles, Min VisibilityMiles, Max Wind SpeedMPH, Mean Wind SpeedMPH, Max Gust SpeedMPH,PrecipitationIn, CloudCover, Events, WindDirDegrees
2013-10-1,82,72,63,64,61,55,93,70,49,29.95,29.91,29.84,10,9,4,12,5,16,0.00,0,,204
2013-10-2,86,74,64,69,64,30,88,74,22,30.06,29.94,29.86,10,7,4,12,4,,0.00,3,,175
2013-10-3,86,75,64,70,65,61,94,78,55,29.92,29.83,29.71,10,9,0,17,7,26,0.48,4,Fog-Rain-Thunderstorm,168
2013-10-4,89,77,66,70,66,60,88,72,48,29.90,29.80,29.72,10,9,1,22,11,31,0.57,3,Rain-Thunderstorm,193
2013-10-5,64,59,51,61,39,34,81,52,41,30.03,29.95,29.88,10,10,10,20,11,23,0.01,2,,260
2013-10-6,61,53,45,44,39,33,77,59,48,30.00,29.91,29.86,10,10,10,15,10,23,0.00,5,,277
2013-10-7,72,59,46,46,42,38,80,58,34,30.15,30.08,30.00,10,10,10,8,3,,0.00,0,,226
2013-10-8,77,64,54,49,46,43,69,52,32,30.11,30.07,30.01,10,10,10,16,8,22,0.00,0,,188
2013-10-9,77,65,55,50,47,45,69,52,35,30.10,30.05,30.01,10,10,10,12,7,17,0.00,0,,169
2013-10-10,79,66,54,56,51,47,77,57,39,30.06,29.98,29.86,10,10,10,13,6,17,0.00,0,,165
2013-10-11,77,69,61,63,59,52,78,69,62,29.88,29.81,29.75,10,10,10,16,9,29,0.00,3,Thunderstorm,177
2013-10-12,71,62,52,57,43,37,78,54,30,30.26,30.09,29.89,10,10,6,14,6,18,0.00,0,,346
2013-10-13,71,58,45,45,39,35,90,55,28,30.41,30.33,30.27,10,10,10,14,3,21,0.00,0,,68
2013-10-14,69,58,48,58,47,35,84,62,37,30.29,30.06,29.87,10,10,7,18,8,36,0.01,5,Rain,134
2013-10-15,62,56,50,58,46,37,90,70,44,30.07,29.96,29.88,10,10,4,15,9,22,0.06,4,Rain,274
2013-10-16,60,52,46,43,38,37,71,60,46,30.12,30.05,29.99,10,10,8,10,6,20,0.01,5,Rain,273
2013-10-17,68,54,43,44,40,35,82,60,32,30.03,29.96,29.89,10,10,10,16,6,22,0.01,1,,248
2013-10-18,48,42,37,39,36,34,89,82,63,30.15,30.11,30.03,10,9,4,12,5,17,0.22,6,Rain,284
2013-10-19,62,49,36,38,35,33,89,66,37,30.10,29.99,29.89,10,10,7,14,8,22,0.00,2,,228
2013-10-20,72,58,46,46,41,37,75,54,33,29.93,29.84,29.78,10,10,10,14,8,23,0.00,1,,219
2013-10-21,55,48,42,41,34,30,73,56,38,30.14,30.06,29.95,10,10,10,12,7,22,0.00,1,,301
2013-10-22,62,51,39,44,37,33,77,58,43,30.12,29.98,29.91,10,10,10,20,10,23,0.00,3,,288
2013-10-23,52,44,36,34,32,30,86,66,45,30.19,30.13,30.07,10,10,9,9,3,,0.00,3,,360
2013-10-24,52,44,37,36,29,23,79,58,33,30.45,30.35,30.20,10,10,8,15,6,20,0.00,1,,352
2013-10-25,57,44,30,31,27,22,89,54,26,30.49,30.37,30.15,10,9,5,15,4,18,0.00,1,,199
2013-10-26,63,52,41,41,34,29,76,54,30,30.19,30.14,30.08,10,10,10,12,7,20,0.00,0,,292
2013-10-27,64,49,34,35,31,29,89,58,28,30.17,30.05,29.95,10,9,5,13,2,,0.00,0,,204
2013-10-28,69,54,39,50,42,33,83,69,44,30.14,30.10,30.00,10,9,5,9,2,,0.00,0,,131
2013-10-29,66,58,51,63,55,47,94,91,77,30.11,30.01,29.94,10,3,1,12,6,,0.71,8,Rain,91
2013-10-30,71,67,64,65,63,60,94,87,73,29.96,29.81,29.70,10,5,1,23,9,30,0.58,8,Rain-Thunderstorm,192
2013-10-31,62,57,50,63,50,42,94,86,69,29.72,29.63,29.56,10,6,1,13,5,22,0.53,6,Rain-Thunderstorm,309